sensor_id;sensor_type;location;lat;lon;timestamp;temperature;humidity
65836;SHT30;52595;51.608;7.216;2024-01-10T00:01:48;-5.57;75.61
65836;SHT30;52595;51.608;7.216;2024-01-10T00:04:13;-5.64;75.95
65836;SHT30;52595;51.608;7.216;2024-01-10T00:06:42;-5.70;76.35
65836;SHT30;52595;51.608;7.216;2024-01-10T00:09:07;-5.77;76.71
65836;SHT30;52595;51.608;7.216;2024-01-10T00:11:33;-5.80;77.05
65836;SHT30;52595;51.608;7.216;2024-01-10T00:13:59;-5.87;77.25
65836;SHT30;52595;51.608;7.216;2024-01-10T00:16:27;-5.86;77.36
65836;SHT30;52595;51.608;7.216;2024-01-10T00:18:53;-5.91;77.69
65836;SHT30;52595;51.608;7.216;2024-01-10T00:21:18;-5.99;77.89
65836;SHT30;52595;51.608;7.216;2024-01-10T00:23:43;-6.01;78.31
65836;SHT30;52595;51.608;7.216;2024-01-10T00:26:09;-6.07;78.39
65836;SHT30;52595;51.608;7.216;2024-01-10T00:28:34;-6.07;78.48
65836;SHT30;52595;51.608;7.216;2024-01-10T00:31:00;-6.12;78.45
65836;SHT30;52595;51.608;7.216;2024-01-10T00:33:25;-6.05;78.50
65836;SHT30;52595;51.608;7.216;2024-01-10T00:35:50;-6.08;78.59
65836;SHT30;52595;51.608;7.216;2024-01-10T00:38:16;-6.11;78.39
65836;SHT30;52595;51.608;7.216;2024-01-10T00:40:41;-6.11;78.39
65836;SHT30;52595;51.608;7.216;2024-01-10T00:43:07;-6.08;78.53
65836;SHT30;52595;51.608;7.216;2024-01-10T00:45:32;-6.08;78.50
65836;SHT30;52595;51.608;7.216;2024-01-10T00:47:58;-6.05;78.56
65836;SHT30;52595;51.608;7.216;2024-01-10T00:50:23;-5.98;78.47
65836;SHT30;52595;51.608;7.216;2024-01-10T00:52:49;-6.08;78.62
65836;SHT30;52595;51.608;7.216;2024-01-10T00:55:14;-5.99;78.49
65836;SHT30;52595;51.608;7.216;2024-01-10T00:57:40;-6.09;78.58
65836;SHT30;52595;51.608;7.216;2024-01-10T01:00:09;-6.11;78.84
65836;SHT30;52595;51.608;7.216;2024-01-10T01:02:36;-6.15;79.33
65836;SHT30;52595;51.608;7.216;2024-01-10T01:05:02;-6.18;79.44
65836;SHT30;52595;51.608;7.216;2024-01-10T01:07:27;-6.26;79.64
65836;SHT30;52595;51.608;7.216;2024-01-10T01:09:53;-6.25;79.79
65836;SHT30;52595;51.608;7.216;2024-01-10T01:12:18;-6.21;79.60
65836;SHT30;52595;51.608;7.216;2024-01-10T01:14:44;-6.11;79.38
65836;SHT30;52595;51.608;7.216;2024-01-10T01:17:09;-6.09;79.30
65836;SHT30;52595;51.608;7.216;2024-01-10T01:19:35;-6.11;79.34
65836;SHT30;52595;51.608;7.216;2024-01-10T01:22:00;-6.18;79.60
65836;SHT30;52595;51.608;7.216;2024-01-10T01:24:26;-6.19;79.72
65836;SHT30;52595;51.608;7.216;2024-01-10T01:26:52;-6.11;79.50
65836;SHT30;52595;51.608;7.216;2024-01-10T01:29:17;-6.14;79.46
65836;SHT30;52595;51.608;7.216;2024-01-10T01:31:43;-6.12;79.33
65836;SHT30;52595;51.608;7.216;2024-01-10T01:34:08;-6.02;79.10
65836;SHT30;52595;51.608;7.216;2024-01-10T01:36:34;-6.12;79.28
65836;SHT30;52595;51.608;7.216;2024-01-10T01:38:59;-6.17;79.48
65836;SHT30;52595;51.608;7.216;2024-01-10T01:41:24;-6.25;79.52
65836;SHT30;52595;51.608;7.216;2024-01-10T01:43:50;-6.22;79.53
65836;SHT30;52595;51.608;7.216;2024-01-10T01:46:15;-6.22;79.80
65836;SHT30;52595;51.608;7.216;2024-01-10T01:48:41;-6.26;79.95
65836;SHT30;52595;51.608;7.216;2024-01-10T01:51:07;-6.22;80.03
65836;SHT30;52595;51.608;7.216;2024-01-10T01:53:34;-6.25;79.96
65836;SHT30;52595;51.608;7.216;2024-01-10T01:56:03;-6.19;79.89
65836;SHT30;52595;51.608;7.216;2024-01-10T01:58:29;-6.29;80.09
65836;SHT30;52595;51.608;7.216;2024-01-10T02:00:55;-6.28;80.12
65836;SHT30;52595;51.608;7.216;2024-01-10T02:03:21;-6.32;80.22
65836;SHT30;52595;51.608;7.216;2024-01-10T02:05:46;-6.24;80.22
65836;SHT30;52595;51.608;7.216;2024-01-10T02:08:13;-6.32;80.25
65836;SHT30;52595;51.608;7.216;2024-01-10T02:10:38;-6.26;80.24
65836;SHT30;52595;51.608;7.216;2024-01-10T02:13:05;-6.36;80.49
65836;SHT30;52595;51.608;7.216;2024-01-10T02:15:30;-6.43;80.67
65836;SHT30;52595;51.608;7.216;2024-01-10T02:17:56;-6.39;80.80
65836;SHT30;52595;51.608;7.216;2024-01-10T02:20:22;-6.39;80.47
65836;SHT30;52595;51.608;7.216;2024-01-10T02:22:47;-6.42;80.86
65836;SHT30;52595;51.608;7.216;2024-01-10T02:25:15;-6.39;81.08
65836;SHT30;52595;51.608;7.216;2024-01-10T02:27:41;-6.43;81.10
65836;SHT30;52595;51.608;7.216;2024-01-10T02:30:07;-6.48;81.01
65836;SHT30;52595;51.608;7.216;2024-01-10T02:32:33;-6.43;81.37
65836;SHT30;52595;51.608;7.216;2024-01-10T02:34:59;-6.36;81.48
65836;SHT30;52595;51.608;7.216;2024-01-10T02:37:25;-6.39;81.35
65836;SHT30;52595;51.608;7.216;2024-01-10T02:39:50;-6.43;81.62
65836;SHT30;52595;51.608;7.216;2024-01-10T02:42:16;-6.48;81.91
65836;SHT30;52595;51.608;7.216;2024-01-10T02:44:42;-6.50;81.82
65836;SHT30;52595;51.608;7.216;2024-01-10T02:47:07;-6.55;82.19
65836;SHT30;52595;51.608;7.216;2024-01-10T02:49:33;-6.56;82.27
65836;SHT30;52595;51.608;7.216;2024-01-10T02:51:59;-6.66;82.60
65836;SHT30;52595;51.608;7.216;2024-01-10T02:54:24;-6.83;82.84
65836;SHT30;52595;51.608;7.216;2024-01-10T02:56:50;-6.80;83.43
65836;SHT30;52595;51.608;7.216;2024-01-10T02:59:15;-6.77;83.39
65836;SHT30;52595;51.608;7.216;2024-01-10T03:01:41;-6.75;83.41
65836;SHT30;52595;51.608;7.216;2024-01-10T03:04:06;-6.76;83.48
65836;SHT30;52595;51.608;7.216;2024-01-10T03:06:32;-6.77;83.38
65836;SHT30;52595;51.608;7.216;2024-01-10T03:08:57;-6.83;84.01
65836;SHT30;52595;51.608;7.216;2024-01-10T03:11:23;-6.92;83.90
65836;SHT30;52595;51.608;7.216;2024-01-10T03:13:53;-6.90;84.29
65836;SHT30;52595;51.608;7.216;2024-01-10T03:16:25;-7.01;83.96
65836;SHT30;52595;51.608;7.216;2024-01-10T03:18:50;-7.03;84.45
65836;SHT30;52595;51.608;7.216;2024-01-10T03:21:17;-7.07;84.65
65836;SHT30;52595;51.608;7.216;2024-01-10T03:23:48;-7.08;84.68
65836;SHT30;52595;51.608;7.216;2024-01-10T03:26:13;-6.94;84.38
65836;SHT30;52595;51.608;7.216;2024-01-10T03:28:38;-6.97;84.24
65836;SHT30;52595;51.608;7.216;2024-01-10T03:31:04;-6.93;84.24
65836;SHT30;52595;51.608;7.216;2024-01-10T03:33:29;-6.92;83.88
65836;SHT30;52595;51.608;7.216;2024-01-10T03:35:54;-6.89;84.04
65836;SHT30;52595;51.608;7.216;2024-01-10T03:38:20;-6.93;83.78
65836;SHT30;52595;51.608;7.216;2024-01-10T03:40:45;-7.00;84.23
65836;SHT30;52595;51.608;7.216;2024-01-10T03:43:10;-7.07;84.07
65836;SHT30;52595;51.608;7.216;2024-01-10T03:45:37;-6.94;84.27
65836;SHT30;52595;51.608;7.216;2024-01-10T03:48:02;-6.90;84.00
65836;SHT30;52595;51.608;7.216;2024-01-10T03:50:28;-6.89;83.86
65836;SHT30;52595;51.608;7.216;2024-01-10T03:52:53;-6.92;83.66
65836;SHT30;52595;51.608;7.216;2024-01-10T03:55:18;-6.83;83.59
65836;SHT30;52595;51.608;7.216;2024-01-10T03:57:44;-6.77;82.79
65836;SHT30;52595;51.608;7.216;2024-01-10T04:00:09;-6.71;82.34
65836;SHT30;52595;51.608;7.216;2024-01-10T04:02:38;-6.66;81.87
65836;SHT30;52595;51.608;7.216;2024-01-10T04:05:09;-6.73;81.97
65836;SHT30;52595;51.608;7.216;2024-01-10T04:07:36;-6.83;82.16
65836;SHT30;52595;51.608;7.216;2024-01-10T04:10:02;-6.84;82.24
65836;SHT30;52595;51.608;7.216;2024-01-10T04:12:28;-6.94;82.27
65836;SHT30;52595;51.608;7.216;2024-01-10T04:14:53;-7.00;82.92
65836;SHT30;52595;51.608;7.216;2024-01-10T04:17:19;-7.08;83.19
65836;SHT30;52595;51.608;7.216;2024-01-10T04:19:44;-7.17;83.25
65836;SHT30;52595;51.608;7.216;2024-01-10T04:22:10;-7.20;83.75
65836;SHT30;52595;51.608;7.216;2024-01-10T04:24:35;-7.08;83.60
65836;SHT30;52595;51.608;7.216;2024-01-10T04:27:00;-7.07;83.62
65836;SHT30;52595;51.608;7.216;2024-01-10T04:29:26;-7.18;83.54
65836;SHT30;52595;51.608;7.216;2024-01-10T04:31:51;-7.27;84.08
65836;SHT30;52595;51.608;7.216;2024-01-10T04:34:17;-7.14;84.04
65836;SHT30;52595;51.608;7.216;2024-01-10T04:36:43;-7.16;83.85
65836;SHT30;52595;51.608;7.216;2024-01-10T04:39:08;-7.16;83.94
65836;SHT30;52595;51.608;7.216;2024-01-10T04:41:34;-7.21;83.93
65836;SHT30;52595;51.608;7.216;2024-01-10T04:43:59;-7.01;83.84
65836;SHT30;52595;51.608;7.216;2024-01-10T04:46:24;-7.16;83.64
65836;SHT30;52595;51.608;7.216;2024-01-10T04:48:50;-7.30;83.76
65836;SHT30;52595;51.608;7.216;2024-01-10T04:51:15;-7.35;84.09
65836;SHT30;52595;51.608;7.216;2024-01-10T04:53:40;-7.37;84.65
65836;SHT30;52595;51.608;7.216;2024-01-10T04:56:06;-7.38;85.08
65836;SHT30;52595;51.608;7.216;2024-01-10T04:58:31;-7.49;84.94
65836;SHT30;52595;51.608;7.216;2024-01-10T05:00:58;-7.35;85.42
65836;SHT30;52595;51.608;7.216;2024-01-10T05:03:23;-7.49;85.15
65836;SHT30;52595;51.608;7.216;2024-01-10T05:05:49;-7.42;85.29
65836;SHT30;52595;51.608;7.216;2024-01-10T05:08:14;-7.48;85.36
65836;SHT30;52595;51.608;7.216;2024-01-10T05:10:40;-7.27;85.21
65836;SHT30;52595;51.608;7.216;2024-01-10T05:13:05;-7.28;85.10
65836;SHT30;52595;51.608;7.216;2024-01-10T05:15:30;-7.31;85.15
65836;SHT30;52595;51.608;7.216;2024-01-10T05:17:56;-7.34;85.27
65836;SHT30;52595;51.608;7.216;2024-01-10T05:20:21;-7.35;85.36
65836;SHT30;52595;51.608;7.216;2024-01-10T05:22:46;-7.20;85.12
65836;SHT30;52595;51.608;7.216;2024-01-10T05:25:12;-7.26;84.79
65836;SHT30;52595;51.608;7.216;2024-01-10T05:27:37;-7.06;84.09
65836;SHT30;52595;51.608;7.216;2024-01-10T05:30:03;-6.94;83.66
65836;SHT30;52595;51.608;7.216;2024-01-10T05:32:29;-6.90;83.33
65836;SHT30;52595;51.608;7.216;2024-01-10T05:34:54;-6.92;83.42
65836;SHT30;52595;51.608;7.216;2024-01-10T05:37:20;-6.93;83.18
65836;SHT30;52595;51.608;7.216;2024-01-10T05:39:47;-6.94;83.26
65836;SHT30;52595;51.608;7.216;2024-01-10T05:42:13;-6.89;83.42
65836;SHT30;52595;51.608;7.216;2024-01-10T05:44:39;-6.89;83.36
65836;SHT30;52595;51.608;7.216;2024-01-10T05:47:05;-6.87;83.08
65836;SHT30;52595;51.608;7.216;2024-01-10T05:49:30;-6.84;83.27
65836;SHT30;52595;51.608;7.216;2024-01-10T05:51:56;-6.79;82.70
65836;SHT30;52595;51.608;7.216;2024-01-10T05:54:21;-6.75;82.30
65836;SHT30;52595;51.608;7.216;2024-01-10T05:56:47;-6.66;81.95
65836;SHT30;52595;51.608;7.216;2024-01-10T05:59:13;-6.59;81.65
65836;SHT30;52595;51.608;7.216;2024-01-10T06:01:41;-6.61;81.67
65836;SHT30;52595;51.608;7.216;2024-01-10T06:04:06;-6.59;81.67
65836;SHT30;52595;51.608;7.216;2024-01-10T06:06:32;-6.69;82.11
65836;SHT30;52595;51.608;7.216;2024-01-10T06:08:57;-6.73;82.32
65836;SHT30;52595;51.608;7.216;2024-01-10T06:11:23;-6.79;82.38
65836;SHT30;52595;51.608;7.216;2024-01-10T06:13:48;-6.90;82.91
65836;SHT30;52595;51.608;7.216;2024-01-10T06:16:14;-6.89;83.22
65836;SHT30;52595;51.608;7.216;2024-01-10T06:18:39;-6.93;83.50
65836;SHT30;52595;51.608;7.216;2024-01-10T06:21:05;-7.03;83.62
65836;SHT30;52595;51.608;7.216;2024-01-10T06:23:30;-6.97;83.95
65836;SHT30;52595;51.608;7.216;2024-01-10T06:25:56;-7.04;83.99
65836;SHT30;52595;51.608;7.216;2024-01-10T06:28:21;-7.01;84.08
65836;SHT30;52595;51.608;7.216;2024-01-10T06:30:48;-7.06;84.28
65836;SHT30;52595;51.608;7.216;2024-01-10T06:33:13;-7.14;84.25
65836;SHT30;52595;51.608;7.216;2024-01-10T06:35:40;-7.18;84.66
65836;SHT30;52595;51.608;7.216;2024-01-10T06:38:06;-7.21;84.77
65836;SHT30;52595;51.608;7.216;2024-01-10T06:40:31;-7.08;84.80
65836;SHT30;52595;51.608;7.216;2024-01-10T06:42:57;-7.03;84.45
65836;SHT30;52595;51.608;7.216;2024-01-10T06:45:22;-7.04;84.28
65836;SHT30;52595;51.608;7.216;2024-01-10T06:47:48;-7.00;84.25
65836;SHT30;52595;51.608;7.216;2024-01-10T06:50:13;-6.96;83.76
65836;SHT30;52595;51.608;7.216;2024-01-10T06:52:38;-6.96;83.64
65836;SHT30;52595;51.608;7.216;2024-01-10T06:55:04;-6.93;83.45
65836;SHT30;52595;51.608;7.216;2024-01-10T06:57:30;-6.97;83.64
65836;SHT30;52595;51.608;7.216;2024-01-10T06:59:55;-6.96;83.69
65836;SHT30;52595;51.608;7.216;2024-01-10T07:02:23;-7.00;83.59
65836;SHT30;52595;51.608;7.216;2024-01-10T07:04:48;-7.00;83.76
65836;SHT30;52595;51.608;7.216;2024-01-10T07:07:14;-6.93;83.77
65836;SHT30;52595;51.608;7.216;2024-01-10T07:09:40;-6.89;83.47
65836;SHT30;52595;51.608;7.216;2024-01-10T07:12:07;-6.83;83.31
65836;SHT30;52595;51.608;7.216;2024-01-10T07:14:32;-6.87;83.28
65836;SHT30;52595;51.608;7.216;2024-01-10T07:16:57;-6.82;83.19
65836;SHT30;52595;51.608;7.216;2024-01-10T07:19:23;-6.86;83.04
65836;SHT30;52595;51.608;7.216;2024-01-10T07:21:49;-6.92;83.30
65836;SHT30;52595;51.608;7.216;2024-01-10T07:24:15;-6.84;83.08
65836;SHT30;52595;51.608;7.216;2024-01-10T07:26:40;-6.84;82.98
65836;SHT30;52595;51.608;7.216;2024-01-10T07:29:06;-6.86;83.11
65836;SHT30;52595;51.608;7.216;2024-01-10T07:31:34;-6.86;83.08
65836;SHT30;52595;51.608;7.216;2024-01-10T07:33:59;-6.77;82.65
65836;SHT30;52595;51.608;7.216;2024-01-10T07:36:25;-6.76;82.67
65836;SHT30;52595;51.608;7.216;2024-01-10T07:38:56;-6.77;82.61
65836;SHT30;52595;51.608;7.216;2024-01-10T07:41:22;-6.76;82.44
65836;SHT30;52595;51.608;7.216;2024-01-10T07:43:48;-6.77;82.64
65836;SHT30;52595;51.608;7.216;2024-01-10T07:46:13;-6.73;82.62
65836;SHT30;52595;51.608;7.216;2024-01-10T07:48:38;-6.77;82.65
65836;SHT30;52595;51.608;7.216;2024-01-10T07:51:04;-6.72;82.35
65836;SHT30;52595;51.608;7.216;2024-01-10T07:53:30;-6.66;82.15
65836;SHT30;52595;51.608;7.216;2024-01-10T07:55:55;-6.61;81.89
65836;SHT30;52595;51.608;7.216;2024-01-10T07:58:21;-6.52;81.31
65836;SHT30;52595;51.608;7.216;2024-01-10T08:00:46;-6.56;81.16
65836;SHT30;52595;51.608;7.216;2024-01-10T08:03:11;-6.55;81.19
65836;SHT30;52595;51.608;7.216;2024-01-10T08:05:37;-6.53;81.14
65836;SHT30;52595;51.608;7.216;2024-01-10T08:08:03;-6.52;81.17
65836;SHT30;52595;51.608;7.216;2024-01-10T08:10:28;-6.46;81.06
65836;SHT30;52595;51.608;7.216;2024-01-10T08:12:54;-6.49;81.28
65836;SHT30;52595;51.608;7.216;2024-01-10T08:15:19;-6.42;80.90
65836;SHT30;52595;51.608;7.216;2024-01-10T08:17:45;-6.39;80.90
65836;SHT30;52595;51.608;7.216;2024-01-10T08:20:11;-6.36;80.62
65836;SHT30;52595;51.608;7.216;2024-01-10T08:22:39;-6.35;80.60
65836;SHT30;52595;51.608;7.216;2024-01-10T08:25:06;-6.26;80.74
65836;SHT30;52595;51.608;7.216;2024-01-10T08:27:32;-6.22;80.34
65836;SHT30;52595;51.608;7.216;2024-01-10T08:29:58;-6.21;80.51
65836;SHT30;52595;51.608;7.216;2024-01-10T08:32:24;-6.19;80.79
65836;SHT30;52595;51.608;7.216;2024-01-10T08:34:49;-6.21;80.70
65836;SHT30;52595;51.608;7.216;2024-01-10T08:37:15;-6.11;80.45
65836;SHT30;52595;51.608;7.216;2024-01-10T08:39:42;-6.07;80.30
65836;SHT30;52595;51.608;7.216;2024-01-10T08:42:08;-5.99;80.27
65836;SHT30;52595;51.608;7.216;2024-01-10T08:44:35;-5.95;79.96
65836;SHT30;52595;51.608;7.216;2024-01-10T08:47:00;-5.88;80.34
65836;SHT30;52595;51.608;7.216;2024-01-10T08:49:26;-5.80;80.16
65836;SHT30;52595;51.608;7.216;2024-01-10T08:51:51;-5.71;80.14
65836;SHT30;52595;51.608;7.216;2024-01-10T08:54:18;-5.70;79.60
65836;SHT30;52595;51.608;7.216;2024-01-10T08:56:45;-5.67;79.38
65836;SHT30;52595;51.608;7.216;2024-01-10T08:59:11;-5.57;79.11
65836;SHT30;52595;51.608;7.216;2024-01-10T09:01:37;-5.52;78.87
65836;SHT30;52595;51.608;7.216;2024-01-10T09:04:04;-5.43;78.70
65836;SHT30;52595;51.608;7.216;2024-01-10T09:06:31;-5.30;78.26
65836;SHT30;52595;51.608;7.216;2024-01-10T09:08:56;-5.29;78.00
65836;SHT30;52595;51.608;7.216;2024-01-10T09:11:22;-5.15;77.54
65836;SHT30;52595;51.608;7.216;2024-01-10T09:13:47;-5.08;77.28
65836;SHT30;52595;51.608;7.216;2024-01-10T09:16:13;-5.02;76.71
65836;SHT30;52595;51.608;7.216;2024-01-10T09:18:38;-4.96;76.48
65836;SHT30;52595;51.608;7.216;2024-01-10T09:21:05;-4.92;76.35
65836;SHT30;52595;51.608;7.216;2024-01-10T09:23:30;-4.81;75.82
65836;SHT30;52595;51.608;7.216;2024-01-10T09:25:56;-4.72;75.43
65836;SHT30;52595;51.608;7.216;2024-01-10T09:28:21;-4.64;74.96
65836;SHT30;52595;51.608;7.216;2024-01-10T09:30:47;-4.53;74.71
65836;SHT30;52595;51.608;7.216;2024-01-10T09:33:12;-4.47;74.37
65836;SHT30;52595;51.608;7.216;2024-01-10T09:35:38;-4.36;73.48
65836;SHT30;52595;51.608;7.216;2024-01-10T09:38:03;-4.23;73.02
65836;SHT30;52595;51.608;7.216;2024-01-10T09:40:29;-4.14;72.74
65836;SHT30;52595;51.608;7.216;2024-01-10T09:42:55;-4.04;72.32
65836;SHT30;52595;51.608;7.216;2024-01-10T09:45:21;-3.99;72.13
65836;SHT30;52595;51.608;7.216;2024-01-10T09:47:49;-3.93;71.98
65836;SHT30;52595;51.608;7.216;2024-01-10T09:50:16;-3.83;71.68
65836;SHT30;52595;51.608;7.216;2024-01-10T09:52:52;-3.78;71.38
65836;SHT30;52595;51.608;7.216;2024-01-10T09:55:22;-3.72;71.19
65836;SHT30;52595;51.608;7.216;2024-01-10T09:57:48;-3.63;70.90
65836;SHT30;52595;51.608;7.216;2024-01-10T10:00:16;-3.52;70.21
65836;SHT30;52595;51.608;7.216;2024-01-10T10:02:41;-3.47;70.32
65836;SHT30;52595;51.608;7.216;2024-01-10T10:05:08;-3.37;69.92
65836;SHT30;52595;51.608;7.216;2024-01-10T10:07:48;-3.32;69.60
65836;SHT30;52595;51.608;7.216;2024-01-10T10:10:14;-3.24;69.72
65836;SHT30;52595;51.608;7.216;2024-01-10T10:12:45;-3.15;69.23
65836;SHT30;52595;51.608;7.216;2024-01-10T10:15:13;-3.08;69.32
65836;SHT30;52595;51.608;7.216;2024-01-10T10:17:40;-2.98;69.37
65836;SHT30;52595;51.608;7.216;2024-01-10T10:20:17;-2.93;68.37
65836;SHT30;52595;51.608;7.216;2024-01-10T10:23:07;-2.76;67.70
65836;SHT30;52595;51.608;7.216;2024-01-10T10:25:46;-2.67;67.25
65836;SHT30;52595;51.608;7.216;2024-01-10T10:28:12;-2.59;66.95
65836;SHT30;52595;51.608;7.216;2024-01-10T10:30:38;-2.48;66.17
65836;SHT30;52595;51.608;7.216;2024-01-10T10:33:04;-2.43;66.16
65836;SHT30;52595;51.608;7.216;2024-01-10T10:35:32;-2.38;66.28
65836;SHT30;52595;51.608;7.216;2024-01-10T10:37:58;-2.31;66.69
65836;SHT30;52595;51.608;7.216;2024-01-10T10:40:23;-2.22;66.03
65836;SHT30;52595;51.608;7.216;2024-01-10T10:42:54;-2.09;65.65
65836;SHT30;52595;51.608;7.216;2024-01-10T10:45:21;-1.99;65.18
65836;SHT30;52595;51.608;7.216;2024-01-10T10:47:58;-1.85;65.11
65836;SHT30;52595;51.608;7.216;2024-01-10T10:50:24;-1.77;65.09
65836;SHT30;52595;51.608;7.216;2024-01-10T10:52:51;-1.66;64.74
65836;SHT30;52595;51.608;7.216;2024-01-10T10:55:18;-1.46;64.64
65836;SHT30;52595;51.608;7.216;2024-01-10T10:57:44;-1.00;63.45
65836;SHT30;52595;51.608;7.216;2024-01-10T11:00:12;-0.38;61.77
65836;SHT30;52595;51.608;7.216;2024-01-10T11:02:40;0.20;59.85
65836;SHT30;52595;51.608;7.216;2024-01-10T11:05:08;0.77;58.16
65836;SHT30;52595;51.608;7.216;2024-01-10T11:07:38;1.06;56.43
65836;SHT30;52595;51.608;7.216;2024-01-10T11:10:07;1.73;55.77
65836;SHT30;52595;51.608;7.216;2024-01-10T11:25:57;3.57;51.89
65836;SHT30;52595;51.608;7.216;2024-01-10T11:28:25;3.97;51.29
65836;SHT30;52595;51.608;7.216;2024-01-10T11:30:53;3.68;51.06
65836;SHT30;52595;51.608;7.216;2024-01-10T11:33:23;3.38;51.21
65836;SHT30;52595;51.608;7.216;2024-01-10T11:36:19;3.74;51.23
65836;SHT30;52595;51.608;7.216;2024-01-10T11:41:32;3.99;49.64
65836;SHT30;52595;51.608;7.216;2024-01-10T11:46:42;4.31;48.92
65836;SHT30;52595;51.608;7.216;2024-01-10T11:49:11;4.08;48.93
65836;SHT30;52595;51.608;7.216;2024-01-10T11:51:39;4.70;48.63
65836;SHT30;52595;51.608;7.216;2024-01-10T11:54:06;5.23;47.15
65836;SHT30;52595;51.608;7.216;2024-01-10T11:56:41;5.13;47.41
65836;SHT30;52595;51.608;7.216;2024-01-10T11:59:09;5.30;45.93
65836;SHT30;52595;51.608;7.216;2024-01-10T12:01:37;5.30;46.06
65836;SHT30;52595;51.608;7.216;2024-01-10T12:04:03;5.72;45.81
65836;SHT30;52595;51.608;7.216;2024-01-10T12:06:34;5.18;47.31
65836;SHT30;52595;51.608;7.216;2024-01-10T12:09:00;4.66;47.29
65836;SHT30;52595;51.608;7.216;2024-01-10T12:11:33;5.34;46.90
65836;SHT30;52595;51.608;7.216;2024-01-10T12:13:58;5.52;46.27
65836;SHT30;52595;51.608;7.216;2024-01-10T12:16:23;4.41;47.02
65836;SHT30;52595;51.608;7.216;2024-01-10T12:18:49;5.39;47.29
65836;SHT30;52595;51.608;7.216;2024-01-10T12:21:14;5.81;46.21
65836;SHT30;52595;51.608;7.216;2024-01-10T12:23:39;5.75;46.14
65836;SHT30;52595;51.608;7.216;2024-01-10T12:26:08;5.91;46.09
65836;SHT30;52595;51.608;7.216;2024-01-10T12:28:35;6.60;45.64
65836;SHT30;52595;51.608;7.216;2024-01-10T12:31:03;6.20;44.35
65836;SHT30;52595;51.608;7.216;2024-01-10T12:33:28;6.46;44.81
65836;SHT30;52595;51.608;7.216;2024-01-10T12:36:07;6.77;44.45
65836;SHT30;52595;51.608;7.216;2024-01-10T12:38:34;7.12;44.16
65836;SHT30;52595;51.608;7.216;2024-01-10T12:41:00;6.67;43.73
65836;SHT30;52595;51.608;7.216;2024-01-10T12:43:26;6.06;44.55
65836;SHT30;52595;51.608;7.216;2024-01-10T12:48:30;6.36;45.40
65836;SHT30;52595;51.608;7.216;2024-01-10T12:50:57;5.72;45.70
65836;SHT30;52595;51.608;7.216;2024-01-10T12:53:26;6.54;45.23
65836;SHT30;52595;51.608;7.216;2024-01-10T12:55:52;7.05;43.92
65836;SHT30;52595;51.608;7.216;2024-01-10T12:58:17;6.70;43.53
65836;SHT30;52595;51.608;7.216;2024-01-10T13:00:42;6.48;44.34
65836;SHT30;52595;51.608;7.216;2024-01-10T13:03:08;6.67;43.87
65836;SHT30;52595;51.608;7.216;2024-01-10T13:05:33;6.50;44.67
65836;SHT30;52595;51.608;7.216;2024-01-10T13:07:58;7.04;43.94
65836;SHT30;52595;51.608;7.216;2024-01-10T13:10:24;7.33;43.64
65836;SHT30;52595;51.608;7.216;2024-01-10T13:12:49;6.95;43.80
65836;SHT30;52595;51.608;7.216;2024-01-10T13:15:15;6.56;44.05
65836;SHT30;52595;51.608;7.216;2024-01-10T13:17:40;6.48;45.23
65836;SHT30;52595;51.608;7.216;2024-01-10T13:20:06;6.97;44.54
65836;SHT30;52595;51.608;7.216;2024-01-10T13:22:31;7.14;44.47
65836;SHT30;52595;51.608;7.216;2024-01-10T13:24:57;7.48;43.87
65836;SHT30;52595;51.608;7.216;2024-01-10T13:27:22;5.82;44.99
65836;SHT30;52595;51.608;7.216;2024-01-10T13:29:47;6.44;45.39
65836;SHT30;52595;51.608;7.216;2024-01-10T13:32:13;6.10;45.87
65836;SHT30;52595;51.608;7.216;2024-01-10T13:34:40;6.32;45.83
65836;SHT30;52595;51.608;7.216;2024-01-10T13:37:06;6.32;45.49
65836;SHT30;52595;51.608;7.216;2024-01-10T13:39:32;6.43;45.62
65836;SHT30;52595;51.608;7.216;2024-01-10T13:41:58;6.26;45.86
65836;SHT30;52595;51.608;7.216;2024-01-10T13:44:23;6.32;45.44
65836;SHT30;52595;51.608;7.216;2024-01-10T13:46:49;6.09;46.18
65836;SHT30;52595;51.608;7.216;2024-01-10T13:49:15;6.27;46.38
65836;SHT30;52595;51.608;7.216;2024-01-10T13:51:41;5.73;46.06
65836;SHT30;52595;51.608;7.216;2024-01-10T13:54:06;5.75;46.81
65836;SHT30;52595;51.608;7.216;2024-01-10T13:56:31;5.27;47.56
65836;SHT30;52595;51.608;7.216;2024-01-10T13:58:59;4.96;48.40
65836;SHT30;52595;51.608;7.216;2024-01-10T14:01:24;3.97;49.57
65836;SHT30;52595;51.608;7.216;2024-01-10T14:03:51;3.17;51.41
65836;SHT30;52595;51.608;7.216;2024-01-10T14:06:16;2.73;52.75
65836;SHT30;52595;51.608;7.216;2024-01-10T14:08:42;2.49;53.54
65836;SHT30;52595;51.608;7.216;2024-01-10T14:11:08;1.56;55.22
65836;SHT30;52595;51.608;7.216;2024-01-10T14:13:34;1.18;56.71
65836;SHT30;52595;51.608;7.216;2024-01-10T14:16:00;0.91;57.13
65836;SHT30;52595;51.608;7.216;2024-01-10T14:18:26;0.67;57.78
65836;SHT30;52595;51.608;7.216;2024-01-10T14:20:51;0.46;58.27
65836;SHT30;52595;51.608;7.216;2024-01-10T14:23:17;0.31;59.40
65836;SHT30;52595;51.608;7.216;2024-01-10T14:25:45;0.11;59.56
65836;SHT30;52595;51.608;7.216;2024-01-10T14:28:11;-0.06;60.08
65836;SHT30;52595;51.608;7.216;2024-01-10T14:30:36;-0.21;60.67
65836;SHT30;52595;51.608;7.216;2024-01-10T14:33:01;-0.28;61.36
65836;SHT30;52595;51.608;7.216;2024-01-10T14:35:27;-0.38;61.98
65836;SHT30;52595;51.608;7.216;2024-01-10T14:37:52;-0.48;61.79
65836;SHT30;52595;51.608;7.216;2024-01-10T14:40:18;-0.48;62.37
65836;SHT30;52595;51.608;7.216;2024-01-10T14:42:43;-0.55;62.71
65836;SHT30;52595;51.608;7.216;2024-01-10T14:45:10;-0.69;62.80
65836;SHT30;52595;51.608;7.216;2024-01-10T14:47:36;-0.71;62.94
65836;SHT30;52595;51.608;7.216;2024-01-10T14:50:01;-0.81;63.66
65836;SHT30;52595;51.608;7.216;2024-01-10T14:52:27;-0.83;63.77
65836;SHT30;52595;51.608;7.216;2024-01-10T14:54:53;-0.91;63.80
65836;SHT30;52595;51.608;7.216;2024-01-10T14:57:18;-0.93;63.98
65836;SHT30;52595;51.608;7.216;2024-01-10T14:59:43;-0.96;64.34
65836;SHT30;52595;51.608;7.216;2024-01-10T15:02:09;-1.00;64.76
65836;SHT30;52595;51.608;7.216;2024-01-10T15:04:38;-1.02;64.65
65836;SHT30;52595;51.608;7.216;2024-01-10T15:07:04;-1.02;64.62
65836;SHT30;52595;51.608;7.216;2024-01-10T15:09:30;-1.10;64.91
65836;SHT30;52595;51.608;7.216;2024-01-10T15:11:55;-1.12;65.27
65836;SHT30;52595;51.608;7.216;2024-01-10T15:14:21;-1.20;65.58
65836;SHT30;52595;51.608;7.216;2024-01-10T15:16:47;-1.26;65.64
65836;SHT30;52595;51.608;7.216;2024-01-10T15:19:13;-1.29;65.66
65836;SHT30;52595;51.608;7.216;2024-01-10T15:21:39;-1.37;65.97
65836;SHT30;52595;51.608;7.216;2024-01-10T15:24:05;-1.42;66.02
65836;SHT30;52595;51.608;7.216;2024-01-10T15:26:30;-1.44;66.46
65836;SHT30;52595;51.608;7.216;2024-01-10T15:28:56;-1.50;66.61
65836;SHT30;52595;51.608;7.216;2024-01-10T15:31:24;-1.56;66.91
65836;SHT30;52595;51.608;7.216;2024-01-10T15:33:53;-1.58;67.04
65836;SHT30;52595;51.608;7.216;2024-01-10T15:36:18;-1.61;67.36
65836;SHT30;52595;51.608;7.216;2024-01-10T15:38:44;-1.67;67.86
65836;SHT30;52595;51.608;7.216;2024-01-10T15:41:09;-1.66;67.81
65836;SHT30;52595;51.608;7.216;2024-01-10T15:43:36;-1.77;68.13
65836;SHT30;52595;51.608;7.216;2024-01-10T15:46:02;-1.82;68.34
65836;SHT30;52595;51.608;7.216;2024-01-10T15:48:27;-1.87;68.28
65836;SHT30;52595;51.608;7.216;2024-01-10T15:50:55;-1.87;68.64